sensor_id;sensor_type;location;lat;lon;timestamp;temperature;humidity
31809;DHT22;18379;48.208;-1.518;2023-03-14T00:03:05;11.40;99.90
31809;DHT22;18379;48.208;-1.518;2023-03-14T00:08:06;11.30;99.90
31809;DHT22;18379;48.208;-1.518;2023-03-14T00:13:06;11.30;99.90
31809;DHT22;18379;48.208;-1.518;2023-03-14T00:18:07;11.30;99.90
31809;DHT22;18379;48.208;-1.518;2023-03-14T00:23:08;11.30;99.90
31809;DHT22;18379;48.208;-1.518;2023-03-14T00:28:09;11.30;99.90
31809;DHT22;18379;48.208;-1.518;2023-03-14T00:33:09;11.20;99.90
31809;DHT22;18379;48.208;-1.518;2023-03-14T00:38:10;11.10;99.90
31809;DHT22;18379;48.208;-1.518;2023-03-14T00:43:11;11.20;99.90
31809;DHT22;18379;48.208;-1.518;2023-03-14T00:48:12;11.10;99.90
31809;DHT22;18379;48.208;-1.518;2023-03-14T00:53:13;11.10;99.90
31809;DHT22;18379;48.208;-1.518;2023-03-14T00:58:16;11.10;99.90
31809;DHT22;18379;48.208;-1.518;2023-03-14T01:03:16;11.10;99.90
31809;DHT22;18379;48.208;-1.518;2023-03-14T01:08:17;11.10;99.90
31809;DHT22;18379;48.208;-1.518;2023-03-14T01:13:18;10.90;99.90
31809;DHT22;18379;48.208;-1.518;2023-03-14T01:18:19;10.80;99.90
31809;DHT22;18379;48.208;-1.518;2023-03-14T01:23:20;10.60;99.90
31809;DHT22;18379;48.208;-1.518;2023-03-14T01:28:21;10.10;99.90
31809;DHT22;18379;48.208;-1.518;2023-03-14T01:33:21;9.90;99.90
31809;DHT22;18379;48.208;-1.518;2023-03-14T01:38:22;9.60;99.90
31809;DHT22;18379;48.208;-1.518;2023-03-14T01:43:23;9.50;99.90
31809;DHT22;18379;48.208;-1.518;2023-03-14T01:48:28;9.40;99.90
31809;DHT22;18379;48.208;-1.518;2023-03-14T01:53:31;9.40;99.90
31809;DHT22;18379;48.208;-1.518;2023-03-14T01:58:33;9.30;99.90
31809;DHT22;18379;48.208;-1.518;2023-03-14T02:03:50;9.30;99.90
31809;DHT22;18379;48.208;-1.518;2023-03-14T02:08:54;9.40;99.90
31809;DHT22;18379;48.208;-1.518;2023-03-14T02:13:57;9.30;99.90
31809;DHT22;18379;48.208;-1.518;2023-03-14T02:18:58;9.20;99.90
31809;DHT22;18379;48.208;-1.518;2023-03-14T02:24:27;9.20;99.90
31809;DHT22;18379;48.208;-1.518;2023-03-14T02:29:33;9.10;99.90
31809;DHT22;18379;48.208;-1.518;2023-03-14T02:34:36;9.00;99.90
31809;DHT22;18379;48.208;-1.518;2023-03-14T02:39:41;9.00;99.90
31809;DHT22;18379;48.208;-1.518;2023-03-14T02:44:54;9.00;99.90
31809;DHT22;18379;48.208;-1.518;2023-03-14T02:50:02;9.00;99.90
31809;DHT22;18379;48.208;-1.518;2023-03-14T02:55:05;9.10;99.90
31809;DHT22;18379;48.208;-1.518;2023-03-14T03:00:06;9.20;99.90
31809;DHT22;18379;48.208;-1.518;2023-03-14T03:05:08;9.10;99.90
31809;DHT22;18379;48.208;-1.518;2023-03-14T03:10:10;9.10;99.90
31809;DHT22;18379;48.208;-1.518;2023-03-14T03:15:10;9.10;99.90
31809;DHT22;18379;48.208;-1.518;2023-03-14T03:20:11;9.10;99.90
31809;DHT22;18379;48.208;-1.518;2023-03-14T03:25:12;9.00;99.90
31809;DHT22;18379;48.208;-1.518;2023-03-14T03:30:13;9.10;99.90
31809;DHT22;18379;48.208;-1.518;2023-03-14T03:35:14;9.00;99.90
31809;DHT22;18379;48.208;-1.518;2023-03-14T03:40:15;8.90;99.90
31809;DHT22;18379;48.208;-1.518;2023-03-14T03:45:16;8.80;99.90
31809;DHT22;18379;48.208;-1.518;2023-03-14T03:50:17;8.70;99.90
31809;DHT22;18379;48.208;-1.518;2023-03-14T03:55:18;8.70;99.90
31809;DHT22;18379;48.208;-1.518;2023-03-14T04:00:18;8.70;99.90
31809;DHT22;18379;48.208;-1.518;2023-03-14T04:05:20;8.80;99.90
31809;DHT22;18379;48.208;-1.518;2023-03-14T04:10:21;8.70;99.90
31809;DHT22;18379;48.208;-1.518;2023-03-14T04:15:22;8.70;99.90
31809;DHT22;18379;48.208;-1.518;2023-03-14T04:20:23;8.70;99.90
31809;DHT22;18379;48.208;-1.518;2023-03-14T04:25:24;8.60;99.90
31809;DHT22;18379;48.208;-1.518;2023-03-14T04:30:24;8.60;99.90
31809;DHT22;18379;48.208;-1.518;2023-03-14T04:35:26;8.50;99.90
31809;DHT22;18379;48.208;-1.518;2023-03-14T04:40:26;8.40;99.90
31809;DHT22;18379;48.208;-1.518;2023-03-14T04:45:27;8.40;99.90
31809;DHT22;18379;48.208;-1.518;2023-03-14T04:50:28;8.40;99.90
31809;DHT22;18379;48.208;-1.518;2023-03-14T04:55:29;8.40;99.90
31809;DHT22;18379;48.208;-1.518;2023-03-14T05:00:30;8.30;99.90
31809;DHT22;18379;48.208;-1.518;2023-03-14T05:05:31;8.00;99.90
31809;DHT22;18379;48.208;-1.518;2023-03-14T05:10:32;7.90;99.90
31809;DHT22;18379;48.208;-1.518;2023-03-14T05:15:32;7.90;99.90
31809;DHT22;18379;48.208;-1.518;2023-03-14T05:20:33;7.80;99.90
31809;DHT22;18379;48.208;-1.518;2023-03-14T05:25:34;7.80;99.90
31809;DHT22;18379;48.208;-1.518;2023-03-14T05:30:36;7.80;99.90
31809;DHT22;18379;48.208;-1.518;2023-03-14T05:35:37;7.70;99.90
31809;DHT22;18379;48.208;-1.518;2023-03-14T05:40:37;7.70;99.90
31809;DHT22;18379;48.208;-1.518;2023-03-14T05:45:38;7.70;99.90
31809;DHT22;18379;48.208;-1.518;2023-03-14T05:50:39;7.70;99.90
31809;DHT22;18379;48.208;-1.518;2023-03-14T05:55:40;7.60;99.90
31809;DHT22;18379;48.208;-1.518;2023-03-14T06:00:41;7.60;99.90
31809;DHT22;18379;48.208;-1.518;2023-03-14T06:05:42;7.60;99.90
31809;DHT22;18379;48.208;-1.518;2023-03-14T06:10:42;7.50;99.90
31809;DHT22;18379;48.208;-1.518;2023-03-14T06:15:43;7.50;99.90
31809;DHT22;18379;48.208;-1.518;2023-03-14T06:20:44;7.50;99.90
31809;DHT22;18379;48.208;-1.518;2023-03-14T06:25:45;7.60;99.90
31809;DHT22;18379;48.208;-1.518;2023-03-14T06:30:46;7.60;99.90
31809;DHT22;18379;48.208;-1.518;2023-03-14T06:35:47;7.60;99.90
31809;DHT22;18379;48.208;-1.518;2023-03-14T06:40:47;7.60;99.90
31809;DHT22;18379;48.208;-1.518;2023-03-14T06:45:48;7.50;99.90
31809;DHT22;18379;48.208;-1.518;2023-03-14T06:50:49;7.60;99.90
31809;DHT22;18379;48.208;-1.518;2023-03-14T06:55:50;7.50;99.90
31809;DHT22;18379;48.208;-1.518;2023-03-14T07:00:53;7.50;99.90
31809;DHT22;18379;48.208;-1.518;2023-03-14T07:05:59;7.60;99.90
31809;DHT22;18379;48.208;-1.518;2023-03-14T07:11:00;7.50;99.90
31809;DHT22;18379;48.208;-1.518;2023-03-14T07:16:01;7.60;99.90
31809;DHT22;18379;48.208;-1.518;2023-03-14T07:21:16;7.70;99.90
31809;DHT22;18379;48.208;-1.518;2023-03-14T07:26:30;7.70;99.90
31809;DHT22;18379;48.208;-1.518;2023-03-14T07:31:43;7.80;99.90
31809;DHT22;18379;48.208;-1.518;2023-03-14T07:36:49;7.90;99.90
31809;DHT22;18379;48.208;-1.518;2023-03-14T07:42:12;7.80;99.90
31809;DHT22;18379;48.208;-1.518;2023-03-14T07:47:20;7.70;99.90
31809;DHT22;18379;48.208;-1.518;2023-03-14T07:52:34;7.70;99.90
31809;DHT22;18379;48.208;-1.518;2023-03-14T07:57:46;7.80;99.90
31809;DHT22;18379;48.208;-1.518;2023-03-14T08:03:19;8.00;99.90
31809;DHT22;18379;48.208;-1.518;2023-03-14T08:08:46;8.30;99.90
31809;DHT22;18379;48.208;-1.518;2023-03-14T08:14:06;8.30;99.90
31809;DHT22;18379;48.208;-1.518;2023-03-14T08:19:16;8.50;99.90
31809;DHT22;18379;48.208;-1.518;2023-03-14T08:24:34;8.50;99.90
31809;DHT22;18379;48.208;-1.518;2023-03-14T08:29:47;8.50;99.90
31809;DHT22;18379;48.208;-1.518;2023-03-14T08:34:54;8.40;99.90
31809;DHT22;18379;48.208;-1.518;2023-03-14T08:50:53;8.50;99.90
31809;DHT22;18379;48.208;-1.518;2023-03-14T08:56:03;8.80;99.90
31809;DHT22;18379;48.208;-1.518;2023-03-14T09:01:17;9.00;99.90
31809;DHT22;18379;48.208;-1.518;2023-03-14T09:06:30;9.00;99.90
31809;DHT22;18379;48.208;-1.518;2023-03-14T09:11:37;9.20;99.90
31809;DHT22;18379;48.208;-1.518;2023-03-14T09:16:50;9.50;99.90
31809;DHT22;18379;48.208;-1.518;2023-03-14T09:21:58;9.50;99.90
31809;DHT22;18379;48.208;-1.518;2023-03-14T09:27:14;9.80;99.90
31809;DHT22;18379;48.208;-1.518;2023-03-14T09:32:29;9.80;99.90
31809;DHT22;18379;48.208;-1.518;2023-03-14T09:37:35;9.70;99.90
31809;DHT22;18379;48.208;-1.518;2023-03-14T09:42:42;9.80;99.90
31809;DHT22;18379;48.208;-1.518;2023-03-14T09:53:46;10.00;99.90
31809;DHT22;18379;48.208;-1.518;2023-03-14T09:59:08;10.40;99.90
31809;DHT22;18379;48.208;-1.518;2023-03-14T10:04:31;10.30;99.90
31809;DHT22;18379;48.208;-1.518;2023-03-14T10:09:39;10.60;99.90
31809;DHT22;18379;48.208;-1.518;2023-03-14T10:14:51;10.70;99.90
31809;DHT22;18379;48.208;-1.518;2023-03-14T10:20:00;11.00;99.90
31809;DHT22;18379;48.208;-1.518;2023-03-14T10:25:06;10.90;99.90
31809;DHT22;18379;48.208;-1.518;2023-03-14T10:41:34;11.30;99.90
31809;DHT22;18379;48.208;-1.518;2023-03-14T10:46:46;11.20;99.90
31809;DHT22;18379;48.208;-1.518;2023-03-14T10:57:45;11.70;99.90
31809;DHT22;18379;48.208;-1.518;2023-03-14T11:03:25;11.70;99.90
31809;DHT22;18379;48.208;-1.518;2023-03-14T11:14:23;12.10;99.90
31809;DHT22;18379;48.208;-1.518;2023-03-14T11:30:38;12.20;99.90
31809;DHT22;18379;48.208;-1.518;2023-03-14T11:36:09;12.60;99.90
31809;DHT22;18379;48.208;-1.518;2023-03-14T11:41:42;12.30;99.90
31809;DHT22;18379;48.208;-1.518;2023-03-14T11:47:09;12.50;99.90
31809;DHT22;18379;48.208;-1.518;2023-03-14T11:52:23;12.70;99.90
31809;DHT22;18379;48.208;-1.518;2023-03-14T11:57:30;12.60;99.90
31809;DHT22;18379;48.208;-1.518;2023-03-14T12:02:58;12.70;99.90
31809;DHT22;18379;48.208;-1.518;2023-03-14T12:13:20;12.70;99.90
31809;DHT22;18379;48.208;-1.518;2023-03-14T12:18:31;12.60;99.90
31809;DHT22;18379;48.208;-1.518;2023-03-14T12:24:17;12.80;99.90
31809;DHT22;18379;48.208;-1.518;2023-03-14T12:29:24;12.70;99.90
31809;DHT22;18379;48.208;-1.518;2023-03-14T12:34:40;13.10;99.90
31809;DHT22;18379;48.208;-1.518;2023-03-14T12:40:17;12.90;99.90
31809;DHT22;18379;48.208;-1.518;2023-03-14T12:45:31;12.40;99.90
31809;DHT22;18379;48.208;-1.518;2023-03-14T12:50:43;12.30;99.90
31809;DHT22;18379;48.208;-1.518;2023-03-14T13:01:37;13.50;99.90
31809;DHT22;18379;48.208;-1.518;2023-03-14T13:12:19;13.40;99.90
31809;DHT22;18379;48.208;-1.518;2023-03-14T13:17:32;12.60;99.90
31809;DHT22;18379;48.208;-1.518;2023-03-14T13:22:36;12.30;99.90
31809;DHT22;18379;48.208;-1.518;2023-03-14T13:27:41;13.00;99.90
31809;DHT22;18379;48.208;-1.518;2023-03-14T13:32:51;13.00;99.90
31809;DHT22;18379;48.208;-1.518;2023-03-14T13:38:00;12.20;99.90
31809;DHT22;18379;48.208;-1.518;2023-03-14T13:43:16;12.60;99.90
31809;DHT22;18379;48.208;-1.518;2023-03-14T13:48:21;13.80;99.90
31809;DHT22;18379;48.208;-1.518;2023-03-14T13:53:28;12.80;99.90
31809;DHT22;18379;48.208;-1.518;2023-03-14T13:58:37;12.20;99.90
31809;DHT22;18379;48.208;-1.518;2023-03-14T14:03:45;12.90;99.90
31809;DHT22;18379;48.208;-1.518;2023-03-14T14:08:51;13.40;99.90
31809;DHT22;18379;48.208;-1.518;2023-03-14T14:14:01;12.40;99.90
31809;DHT22;18379;48.208;-1.518;2023-03-14T14:19:08;12.60;99.90
31809;DHT22;18379;48.208;-1.518;2023-03-14T14:24:20;12.70;99.90
31809;DHT22;18379;48.208;-1.518;2023-03-14T14:29:30;12.60;99.90
31809;DHT22;18379;48.208;-1.518;2023-03-14T14:34:45;12.30;99.90
31809;DHT22;18379;48.208;-1.518;2023-03-14T14:39:57;12.60;99.90
31809;DHT22;18379;48.208;-1.518;2023-03-14T14:45:21;12.60;99.90
31809;DHT22;18379;48.208;-1.518;2023-03-14T14:56:15;14.20;99.90
31809;DHT22;18379;48.208;-1.518;2023-03-14T15:01:29;14.40;99.90
31809;DHT22;18379;48.208;-1.518;2023-03-14T15:06:43;14.40;99.90
31809;DHT22;18379;48.208;-1.518;2023-03-14T15:11:46;14.10;99.90
31809;DHT22;18379;48.208;-1.518;2023-03-14T15:16:52;14.50;99.90
31809;DHT22;18379;48.208;-1.518;2023-03-14T15:21:57;14.40;99.90
31809;DHT22;18379;48.208;-1.518;2023-03-14T15:27:01;13.90;99.90
31809;DHT22;18379;48.208;-1.518;2023-03-14T15:32:05;12.80;99.90
31809;DHT22;18379;48.208;-1.518;2023-03-14T15:37:13;11.80;99.90
31809;DHT22;18379;48.208;-1.518;2023-03-14T15:42:19;11.10;99.90
31809;DHT22;18379;48.208;-1.518;2023-03-14T15:47:30;11.10;99.90
31809;DHT22;18379;48.208;-1.518;2023-03-14T15:52:34;12.30;99.90
31809;DHT22;18379;48.208;-1.518;2023-03-14T15:57:36;13.50;99.90
31809;DHT22;18379;48.208;-1.518;2023-03-14T16:02:38;14.00;99.90
31809;DHT22;18379;48.208;-1.518;2023-03-14T16:07:45;14.20;99.90
31809;DHT22;18379;48.208;-1.518;2023-03-14T16:12:48;14.30;99.90
31809;DHT22;18379;48.208;-1.518;2023-03-14T16:17:55;12.80;99.90
31809;DHT22;18379;48.208;-1.518;2023-03-14T16:22:57;11.40;99.90
31809;DHT22;18379;48.208;-1.518;2023-03-14T16:28:04;12.20;99.90
31809;DHT22;18379;48.208;-1.518;2023-03-14T16:33:06;12.60;99.90
31809;DHT22;18379;48.208;-1.518;2023-03-14T16:38:10;13.00;99.90
31809;DHT22;18379;48.208;-1.518;2023-03-14T16:43:11;13.00;99.90
31809;DHT22;18379;48.208;-1.518;2023-03-14T16:48:16;13.50;99.90
31809;DHT22;18379;48.208;-1.518;2023-03-14T16:53:19;13.30;99.90
31809;DHT22;18379;48.208;-1.518;2023-03-14T16:58:22;13.30;99.90
31809;DHT22;18379;48.208;-1.518;2023-03-14T17:03:24;11.70;99.90
31809;DHT22;18379;48.208;-1.518;2023-03-14T17:08:27;11.70;99.90
31809;DHT22;18379;48.208;-1.518;2023-03-14T17:13:27;11.60;99.90
31809;DHT22;18379;48.208;-1.518;2023-03-14T17:18:29;11.40;99.90
31809;DHT22;18379;48.208;-1.518;2023-03-14T17:23:32;10.90;99.90
31809;DHT22;18379;48.208;-1.518;2023-03-14T17:28:34;10.50;99.90
31809;DHT22;18379;48.208;-1.518;2023-03-14T17:33:35;10.10;99.90
31809;DHT22;18379;48.208;-1.518;2023-03-14T17:38:36;10.00;99.90
31809;DHT22;18379;48.208;-1.518;2023-03-14T17:43:37;9.80;99.90
31809;DHT22;18379;48.208;-1.518;2023-03-14T17:48:44;9.70;99.90
31809;DHT22;18379;48.208;-1.518;2023-03-14T17:53:45;9.50;99.90
31809;DHT22;18379;48.208;-1.518;2023-03-14T17:58:45;9.40;99.90
31809;DHT22;18379;48.208;-1.518;2023-03-14T18:03:46;9.30;99.90
31809;DHT22;18379;48.208;-1.518;2023-03-14T18:08:48;9.30;99.90
31809;DHT22;18379;48.208;-1.518;2023-03-14T18:13:50;9.10;99.90
31809;DHT22;18379;48.208;-1.518;2023-03-14T18:18:51;9.00;99.90
31809;DHT22;18379;48.208;-1.518;2023-03-14T18:23:53;8.90;99.90
31809;DHT22;18379;48.208;-1.518;2023-03-14T18:28:55;8.70;99.90
31809;DHT22;18379;48.208;-1.518;2023-03-14T18:33:55;8.70;99.90
31809;DHT22;18379;48.208;-1.518;2023-03-14T18:38:57;8.60;99.90
31809;DHT22;18379;48.208;-1.518;2023-03-14T18:43:58;8.40;99.90
31809;DHT22;18379;48.208;-1.518;2023-03-14T18:48:59;8.40;99.90
31809;DHT22;18379;48.208;-1.518;2023-03-14T18:54:03;8.30;99.90
31809;DHT22;18379;48.208;-1.518;2023-03-14T18:59:04;8.10;99.90
31809;DHT22;18379;48.208;-1.518;2023-03-14T19:04:05;8.00;99.90
31809;DHT22;18379;48.208;-1.518;2023-03-14T19:09:06;8.00;99.90
31809;DHT22;18379;48.208;-1.518;2023-03-14T19:14:08;7.90;99.90
31809;DHT22;18379;48.208;-1.518;2023-03-14T19:19:13;7.80;99.90
31809;DHT22;18379;48.208;-1.518;2023-03-14T19:24:19;7.70;99.90
31809;DHT22;18379;48.208;-1.518;2023-03-14T19:29:22;7.70;99.90
31809;DHT22;18379;48.208;-1.518;2023-03-14T19:34:23;7.60;99.90
31809;DHT22;18379;48.208;-1.518;2023-03-14T19:39:24;7.60;99.90
31809;DHT22;18379;48.208;-1.518;2023-03-14T19:44:25;7.50;99.90
31809;DHT22;18379;48.208;-1.518;2023-03-14T19:49:26;7.40;99.90
31809;DHT22;18379;48.208;-1.518;2023-03-14T19:54:27;7.40;99.90
31809;DHT22;18379;48.208;-1.518;2023-03-14T19:59:29;7.40;99.90
31809;DHT22;18379;48.208;-1.518;2023-03-14T20:04:30;7.30;99.90
31809;DHT22;18379;48.208;-1.518;2023-03-14T20:09:31;7.20;99.90
31809;DHT22;18379;48.208;-1.518;2023-03-14T20:14:34;7.00;99.90
31809;DHT22;18379;48.208;-1.518;2023-03-14T20:19:37;6.90;99.90
31809;DHT22;18379;48.208;-1.518;2023-03-14T20:24:38;6.70;99.90
31809;DHT22;18379;48.208;-1.518;2023-03-14T20:29:40;6.60;99.90
31809;DHT22;18379;48.208;-1.518;2023-03-14T20:34:43;6.40;99.90
31809;DHT22;18379;48.208;-1.518;2023-03-14T20:39:43;6.20;99.90
31809;DHT22;18379;48.208;-1.518;2023-03-14T20:44:44;6.10;99.90
31809;DHT22;18379;48.208;-1.518;2023-03-14T20:49:45;6.10;99.90
31809;DHT22;18379;48.208;-1.518;2023-03-14T20:54:46;6.00;99.90
31809;DHT22;18379;48.208;-1.518;2023-03-14T20:59:54;5.90;99.90
31809;DHT22;18379;48.208;-1.518;2023-03-14T21:04:56;5.80;99.90
31809;DHT22;18379;48.208;-1.518;2023-03-14T21:09:57;5.80;99.90
31809;DHT22;18379;48.208;-1.518;2023-03-14T21:14:58;5.70;99.90
31809;DHT22;18379;48.208;-1.518;2023-03-14T21:19:59;5.70;99.90
31809;DHT22;18379;48.208;-1.518;2023-03-14T21:25:00;5.60;99.90
31809;DHT22;18379;48.208;-1.518;2023-03-14T21:30:01;5.50;99.90
31809;DHT22;18379;48.208;-1.518;2023-03-14T21:35:02;5.40;99.90
31809;DHT22;18379;48.208;-1.518;2023-03-14T21:40:03;5.30;99.90
31809;DHT22;18379;48.208;-1.518;2023-03-14T21:45:08;5.20;99.90
31809;DHT22;18379;48.208;-1.518;2023-03-14T21:50:10;5.10;99.90
31809;DHT22;18379;48.208;-1.518;2023-03-14T21:55:14;5.00;99.90
31809;DHT22;18379;48.208;-1.518;2023-03-14T22:00:19;4.90;99.90
31809;DHT22;18379;48.208;-1.518;2023-03-14T22:05:21;4.80;99.90
31809;DHT22;18379;48.208;-1.518;2023-03-14T22:10:22;4.80;99.90
31809;DHT22;18379;48.208;-1.518;2023-03-14T22:15:23;4.80;99.90
31809;DHT22;18379;48.208;-1.518;2023-03-14T22:20:24;4.80;99.90
31809;DHT22;18379;48.208;-1.518;2023-03-14T22:25:24;4.80;99.90
31809;DHT22;18379;48.208;-1.518;2023-03-14T22:30:25;4.70;99.90
31809;DHT22;18379;48.208;-1.518;2023-03-14T22:35:26;4.60;99.90
31809;DHT22;18379;48.208;-1.518;2023-03-14T22:40:27;4.60;99.90
31809;DHT22;18379;48.208;-1.518;2023-03-14T22:45:28;4.70;99.90
31809;DHT22;18379;48.208;-1.518;2023-03-14T22:50:29;4.60;99.90
31809;DHT22;18379;48.208;-1.518;2023-03-14T22:55:29;4.50;99.90
31809;DHT22;18379;48.208;-1.518;2023-03-14T23:05:40;4.60;99.90
31809;DHT22;18379;48.208;-1.518;2023-03-14T23:10:41;4.60;99.90
31809;DHT22;18379;48.208;-1.518;2023-03-14T23:15:43;4.70;99.90
31809;DHT22;18379;48.208;-1.518;2023-03-14T23:20:43;4.70;99.90
31809;DHT22;18379;48.208;-1.518;2023-03-14T23:25:44;4.70;99.90
31809;DHT22;18379;48.208;-1.518;2023-03-14T23:30:45;4.70;99.90
31809;DHT22;18379;48.208;-1.518;2023-03-14T23:35:46;4.80;99.90
31809;DHT22;18379;48.208;-1.518;2023-03-14T23:40:46;5.00;99.90
31809;DHT22;18379;48.208;-1.518;2023-03-14T23:45:49;5.20;99.90
31809;DHT22;18379;48.208;-1.518;2023-03-14T23:50:54;5.30;99.90
31809;DHT22;18379;48.208;-1.518;2023-03-14T23:55:56;5.50;99.90
